sensor_id;sensor_type;location;lat;lon;timestamp;P1;durP1;ratioP1;P2;durP2;ratioP2
5054;SDS011;13829;48.990;8.346;2023-03-14T00:01:20;1.40;;;0.73;;
5054;SDS011;13829;48.990;8.346;2023-03-14T00:03:49;1.40;;;0.97;;
5054;SDS011;13829;48.990;8.346;2023-03-14T00:06:16;0.60;;;0.60;;
5054;SDS011;13829;48.990;8.346;2023-03-14T00:08:44;0.80;;;0.70;;
5054;SDS011;13829;48.990;8.346;2023-03-14T00:11:11;2.40;;;0.83;;
5054;SDS011;13829;48.990;8.346;2023-03-14T00:13:41;1.43;;;0.90;;
5054;SDS011;13829;48.990;8.346;2023-03-14T00:16:08;1.10;;;0.70;;
5054;SDS011;13829;48.990;8.346;2023-03-14T00:18:38;0.70;;;0.60;;
5054;SDS011;13829;48.990;8.346;2023-03-14T00:21:07;1.90;;;0.77;;
5054;SDS011;13829;48.990;8.346;2023-03-14T00:23:37;0.70;;;0.70;;
5054;SDS011;13829;48.990;8.346;2023-03-14T00:26:07;0.70;;;0.67;;
5054;SDS011;13829;48.990;8.346;2023-03-14T00:28:36;1.43;;;0.70;;
5054;SDS011;13829;48.990;8.346;2023-03-14T00:31:04;2.63;;;0.90;;
5054;SDS011;13829;48.990;8.346;2023-03-14T00:33:33;1.97;;;0.80;;
5054;SDS011;13829;48.990;8.346;2023-03-14T00:36:02;1.33;;;0.80;;
5054;SDS011;13829;48.990;8.346;2023-03-14T00:38:34;0.80;;;0.70;;
5054;SDS011;13829;48.990;8.346;2023-03-14T00:41:03;0.77;;;0.60;;
5054;SDS011;13829;48.990;8.346;2023-03-14T00:43:31;1.00;;;0.80;;
5054;SDS011;13829;48.990;8.346;2023-03-14T00:45:58;0.83;;;0.60;;
5054;SDS011;13829;48.990;8.346;2023-03-14T00:48:27;1.83;;;0.93;;
5054;SDS011;13829;48.990;8.346;2023-03-14T00:50:54;0.50;;;0.50;;
5054;SDS011;13829;48.990;8.346;2023-03-14T00:53:22;2.43;;;0.93;;
5054;SDS011;13829;48.990;8.346;2023-03-14T00:55:50;0.97;;;0.70;;
5054;SDS011;13829;48.990;8.346;2023-03-14T00:58:17;1.23;;;0.80;;
5054;SDS011;13829;48.990;8.346;2023-03-14T01:00:45;1.43;;;0.70;;
5054;SDS011;13829;48.990;8.346;2023-03-14T01:03:13;1.23;;;0.70;;
5054;SDS011;13829;48.990;8.346;2023-03-14T01:05:41;1.93;;;0.83;;
5054;SDS011;13829;48.990;8.346;2023-03-14T01:08:08;1.13;;;0.70;;
5054;SDS011;13829;48.990;8.346;2023-03-14T01:10:38;1.27;;;0.80;;
5054;SDS011;13829;48.990;8.346;2023-03-14T01:13:07;1.40;;;0.70;;
5054;SDS011;13829;48.990;8.346;2023-03-14T01:15:35;1.60;;;0.60;;
5054;SDS011;13829;48.990;8.346;2023-03-14T01:18:03;1.00;;;0.87;;
5054;SDS011;13829;48.990;8.346;2023-03-14T01:20:31;0.80;;;0.60;;
5054;SDS011;13829;48.990;8.346;2023-03-14T01:22:58;1.27;;;0.80;;
5054;SDS011;13829;48.990;8.346;2023-03-14T01:25:25;2.47;;;0.73;;
5054;SDS011;13829;48.990;8.346;2023-03-14T01:27:53;1.00;;;0.60;;
5054;SDS011;13829;48.990;8.346;2023-03-14T01:30:20;1.53;;;0.90;;
5054;SDS011;13829;48.990;8.346;2023-03-14T01:32:47;2.90;;;1.10;;
5054;SDS011;13829;48.990;8.346;2023-03-14T01:35:14;0.97;;;0.93;;
5054;SDS011;13829;48.990;8.346;2023-03-14T01:37:42;2.30;;;0.80;;
5054;SDS011;13829;48.990;8.346;2023-03-14T01:40:10;1.43;;;0.70;;
5054;SDS011;13829;48.990;8.346;2023-03-14T01:42:43;1.70;;;0.90;;
5054;SDS011;13829;48.990;8.346;2023-03-14T01:48:47;1.20;;;0.70;;
5054;SDS011;13829;48.990;8.346;2023-03-14T01:51:24;0.90;;;0.83;;
5054;SDS011;13829;48.990;8.346;2023-03-14T01:53:59;1.20;;;1.00;;
5054;SDS011;13829;48.990;8.346;2023-03-14T01:56:35;1.97;;;1.03;;
5054;SDS011;13829;48.990;8.346;2023-03-14T01:59:04;0.73;;;0.70;;
5054;SDS011;13829;48.990;8.346;2023-03-14T02:01:34;1.27;;;0.90;;
5054;SDS011;13829;48.990;8.346;2023-03-14T02:04:05;2.80;;;1.10;;
5054;SDS011;13829;48.990;8.346;2023-03-14T02:06:39;1.00;;;0.90;;
5054;SDS011;13829;48.990;8.346;2023-03-14T02:09:14;3.33;;;0.93;;
5054;SDS011;13829;48.990;8.346;2023-03-14T02:11:42;2.00;;;0.80;;
5054;SDS011;13829;48.990;8.346;2023-03-14T02:14:13;1.20;;;0.70;;
5054;SDS011;13829;48.990;8.346;2023-03-14T02:16:50;3.20;;;1.10;;
5054;SDS011;13829;48.990;8.346;2023-03-14T02:19:20;1.30;;;0.80;;
5054;SDS011;13829;48.990;8.346;2023-03-14T02:22:02;1.47;;;0.90;;
5054;SDS011;13829;48.990;8.346;2023-03-14T02:24:38;2.23;;;1.27;;
5054;SDS011;13829;48.990;8.346;2023-03-14T02:27:14;0.97;;;0.80;;
5054;SDS011;13829;48.990;8.346;2023-03-14T02:29:45;1.73;;;0.70;;
5054;SDS011;13829;48.990;8.346;2023-03-14T02:32:18;2.67;;;0.90;;
5054;SDS011;13829;48.990;8.346;2023-03-14T02:34:49;1.63;;;0.80;;
5054;SDS011;13829;48.990;8.346;2023-03-14T02:37:21;2.43;;;0.60;;
5054;SDS011;13829;48.990;8.346;2023-03-14T02:39:55;1.63;;;1.00;;
5054;SDS011;13829;48.990;8.346;2023-03-14T02:42:23;2.67;;;0.80;;
5054;SDS011;13829;48.990;8.346;2023-03-14T02:44:51;1.70;;;0.93;;
5054;SDS011;13829;48.990;8.346;2023-03-14T02:47:22;1.30;;;0.80;;
5054;SDS011;13829;48.990;8.346;2023-03-14T02:49:57;1.10;;;0.90;;
5054;SDS011;13829;48.990;8.346;2023-03-14T02:52:29;1.20;;;1.00;;
5054;SDS011;13829;48.990;8.346;2023-03-14T02:54:56;2.53;;;1.00;;
5054;SDS011;13829;48.990;8.346;2023-03-14T02:57:24;2.60;;;0.90;;
5054;SDS011;13829;48.990;8.346;2023-03-14T02:59:51;1.77;;;0.83;;
5054;SDS011;13829;48.990;8.346;2023-03-14T03:02:18;1.50;;;0.97;;
5054;SDS011;13829;48.990;8.346;2023-03-14T03:04:45;1.00;;;0.90;;
5054;SDS011;13829;48.990;8.346;2023-03-14T03:07:12;1.93;;;1.00;;
5054;SDS011;13829;48.990;8.346;2023-03-14T03:09:39;2.33;;;0.90;;
5054;SDS011;13829;48.990;8.346;2023-03-14T03:12:06;0.70;;;0.60;;
5054;SDS011;13829;48.990;8.346;2023-03-14T03:14:34;2.70;;;0.70;;
5054;SDS011;13829;48.990;8.346;2023-03-14T03:17:02;1.70;;;1.00;;
5054;SDS011;13829;48.990;8.346;2023-03-14T03:19:29;1.00;;;0.77;;
5054;SDS011;13829;48.990;8.346;2023-03-14T03:21:56;3.50;;;1.10;;
5054;SDS011;13829;48.990;8.346;2023-03-14T03:24:24;1.67;;;0.97;;
5054;SDS011;13829;48.990;8.346;2023-03-14T03:26:51;4.17;;;0.90;;
5054;SDS011;13829;48.990;8.346;2023-03-14T03:29:18;1.90;;;1.00;;
5054;SDS011;13829;48.990;8.346;2023-03-14T03:31:47;3.20;;;1.17;;
5054;SDS011;13829;48.990;8.346;2023-03-14T03:34:13;1.30;;;0.87;;
5054;SDS011;13829;48.990;8.346;2023-03-14T03:36:41;2.80;;;1.33;;
5054;SDS011;13829;48.990;8.346;2023-03-14T03:39:08;3.77;;;1.20;;
5054;SDS011;13829;48.990;8.346;2023-03-14T03:41:34;2.87;;;1.50;;
5054;SDS011;13829;48.990;8.346;2023-03-14T03:44:01;3.70;;;1.10;;
5054;SDS011;13829;48.990;8.346;2023-03-14T03:46:30;1.73;;;0.93;;
5054;SDS011;13829;48.990;8.346;2023-03-14T03:48:59;2.50;;;1.10;;
5054;SDS011;13829;48.990;8.346;2023-03-14T03:51:26;3.93;;;1.07;;
5054;SDS011;13829;48.990;8.346;2023-03-14T03:53:53;2.13;;;0.90;;
5054;SDS011;13829;48.990;8.346;2023-03-14T03:56:22;3.17;;;0.90;;
5054;SDS011;13829;48.990;8.346;2023-03-14T03:58:49;1.50;;;0.90;;
5054;SDS011;13829;48.990;8.346;2023-03-14T04:01:15;2.23;;;0.87;;
5054;SDS011;13829;48.990;8.346;2023-03-14T04:03:42;3.73;;;1.20;;
5054;SDS011;13829;48.990;8.346;2023-03-14T04:06:11;2.80;;;1.37;;
5054;SDS011;13829;48.990;8.346;2023-03-14T04:08:40;2.83;;;1.07;;
5054;SDS011;13829;48.990;8.346;2023-03-14T04:11:08;2.30;;;1.03;;
5054;SDS011;13829;48.990;8.346;2023-03-14T04:13:35;3.17;;;1.03;;
5054;SDS011;13829;48.990;8.346;2023-03-14T04:16:02;3.20;;;1.53;;
5054;SDS011;13829;48.990;8.346;2023-03-14T04:18:35;2.57;;;1.30;;
5054;SDS011;13829;48.990;8.346;2023-03-14T04:21:02;4.33;;;0.97;;
5054;SDS011;13829;48.990;8.346;2023-03-14T04:23:31;1.83;;;1.13;;
5054;SDS011;13829;48.990;8.346;2023-03-14T04:26:02;3.80;;;1.20;;
5054;SDS011;13829;48.990;8.346;2023-03-14T04:28:29;3.13;;;0.93;;
5054;SDS011;13829;48.990;8.346;2023-03-14T04:30:56;2.63;;;1.30;;
5054;SDS011;13829;48.990;8.346;2023-03-14T04:33:23;3.10;;;1.07;;
5054;SDS011;13829;48.990;8.346;2023-03-14T04:35:52;3.63;;;0.90;;
5054;SDS011;13829;48.990;8.346;2023-03-14T04:38:20;2.13;;;1.10;;
5054;SDS011;13829;48.990;8.346;2023-03-14T04:40:48;2.93;;;1.03;;
5054;SDS011;13829;48.990;8.346;2023-03-14T04:43:16;2.57;;;0.93;;
5054;SDS011;13829;48.990;8.346;2023-03-14T04:45:43;4.17;;;1.10;;
5054;SDS011;13829;48.990;8.346;2023-03-14T04:48:10;5.20;;;1.57;;
5054;SDS011;13829;48.990;8.346;2023-03-14T04:50:37;2.60;;;1.10;;
5054;SDS011;13829;48.990;8.346;2023-03-14T04:53:04;2.83;;;1.00;;
5054;SDS011;13829;48.990;8.346;2023-03-14T04:55:32;3.17;;;1.10;;
5054;SDS011;13829;48.990;8.346;2023-03-14T04:58:01;2.63;;;1.10;;
5054;SDS011;13829;48.990;8.346;2023-03-14T05:00:27;4.20;;;1.20;;
5054;SDS011;13829;48.990;8.346;2023-03-14T05:02:54;3.00;;;0.97;;
5054;SDS011;13829;48.990;8.346;2023-03-14T05:05:21;4.73;;;1.37;;
5054;SDS011;13829;48.990;8.346;2023-03-14T05:07:49;2.07;;;1.10;;
5054;SDS011;13829;48.990;8.346;2023-03-14T05:10:16;5.53;;;1.30;;
5054;SDS011;13829;48.990;8.346;2023-03-14T05:12:43;4.83;;;0.90;;
5054;SDS011;13829;48.990;8.346;2023-03-14T05:15:11;2.73;;;1.20;;
5054;SDS011;13829;48.990;8.346;2023-03-14T05:17:38;2.97;;;1.03;;
5054;SDS011;13829;48.990;8.346;2023-03-14T05:20:05;1.87;;;1.10;;
5054;SDS011;13829;48.990;8.346;2023-03-14T05:22:35;5.63;;;0.90;;
5054;SDS011;13829;48.990;8.346;2023-03-14T05:25:02;1.83;;;1.00;;
5054;SDS011;13829;48.990;8.346;2023-03-14T05:27:29;3.17;;;0.87;;
5054;SDS011;13829;48.990;8.346;2023-03-14T05:29:56;2.57;;;1.07;;
5054;SDS011;13829;48.990;8.346;2023-03-14T05:32:25;2.07;;;0.70;;
5054;SDS011;13829;48.990;8.346;2023-03-14T05:34:51;2.67;;;1.33;;
5054;SDS011;13829;48.990;8.346;2023-03-14T05:37:23;2.20;;;0.90;;
5054;SDS011;13829;48.990;8.346;2023-03-14T05:39:50;5.07;;;1.03;;
5054;SDS011;13829;48.990;8.346;2023-03-14T05:42:16;1.87;;;0.87;;
5054;SDS011;13829;48.990;8.346;2023-03-14T05:44:43;1.13;;;0.70;;
5054;SDS011;13829;48.990;8.346;2023-03-14T05:47:10;1.33;;;0.80;;
5054;SDS011;13829;48.990;8.346;2023-03-14T05:49:39;2.63;;;1.40;;
5054;SDS011;13829;48.990;8.346;2023-03-14T05:52:06;2.57;;;1.10;;
5054;SDS011;13829;48.990;8.346;2023-03-14T05:54:32;2.17;;;0.77;;
5054;SDS011;13829;48.990;8.346;2023-03-14T05:57:00;2.37;;;0.80;;
5054;SDS011;13829;48.990;8.346;2023-03-14T05:59:27;2.13;;;0.97;;
5054;SDS011;13829;48.990;8.346;2023-03-14T06:01:54;1.50;;;0.90;;
5054;SDS011;13829;48.990;8.346;2023-03-14T06:04:20;2.87;;;1.00;;
5054;SDS011;13829;48.990;8.346;2023-03-14T06:06:49;2.60;;;0.93;;
5054;SDS011;13829;48.990;8.346;2023-03-14T06:09:16;1.20;;;0.67;;
5054;SDS011;13829;48.990;8.346;2023-03-14T06:11:44;1.50;;;0.70;;
5054;SDS011;13829;48.990;8.346;2023-03-14T06:14:12;3.07;;;1.10;;
5054;SDS011;13829;48.990;8.346;2023-03-14T06:16:39;5.73;;;1.50;;
5054;SDS011;13829;48.990;8.346;2023-03-14T06:19:05;2.87;;;0.97;;
5054;SDS011;13829;48.990;8.346;2023-03-14T06:21:32;2.77;;;0.80;;
5054;SDS011;13829;48.990;8.346;2023-03-14T06:24:01;3.00;;;1.00;;
5054;SDS011;13829;48.990;8.346;2023-03-14T06:26:28;2.93;;;0.87;;
5054;SDS011;13829;48.990;8.346;2023-03-14T06:28:55;2.47;;;0.90;;
5054;SDS011;13829;48.990;8.346;2023-03-14T06:31:24;2.50;;;0.80;;
5054;SDS011;13829;48.990;8.346;2023-03-14T06:33:51;1.17;;;0.73;;
5054;SDS011;13829;48.990;8.346;2023-03-14T06:36:18;2.00;;;0.90;;
5054;SDS011;13829;48.990;8.346;2023-03-14T06:38:45;3.07;;;0.63;;
5054;SDS011;13829;48.990;8.346;2023-03-14T06:41:13;2.63;;;1.30;;
5054;SDS011;13829;48.990;8.346;2023-03-14T06:43:40;2.30;;;0.90;;
5054;SDS011;13829;48.990;8.346;2023-03-14T06:46:07;1.97;;;0.73;;
5054;SDS011;13829;48.990;8.346;2023-03-14T06:48:34;2.00;;;1.20;;
5054;SDS011;13829;48.990;8.346;2023-03-14T06:51:01;7.20;;;0.83;;
5054;SDS011;13829;48.990;8.346;2023-03-14T06:53:29;2.37;;;0.90;;
5054;SDS011;13829;48.990;8.346;2023-03-14T06:55:56;2.10;;;1.00;;
5054;SDS011;13829;48.990;8.346;2023-03-14T06:58:24;3.30;;;1.10;;
5054;SDS011;13829;48.990;8.346;2023-03-14T07:00:52;2.07;;;0.87;;
5054;SDS011;13829;48.990;8.346;2023-03-14T07:03:19;0.90;;;0.60;;
5054;SDS011;13829;48.990;8.346;2023-03-14T07:05:47;5.17;;;1.10;;
5054;SDS011;13829;48.990;8.346;2023-03-14T07:08:14;1.53;;;0.70;;
5054;SDS011;13829;48.990;8.346;2023-03-14T07:10:41;2.50;;;0.70;;
5054;SDS011;13829;48.990;8.346;2023-03-14T07:13:08;2.67;;;1.00;;
5054;SDS011;13829;48.990;8.346;2023-03-14T07:15:36;1.07;;;0.80;;
5054;SDS011;13829;48.990;8.346;2023-03-14T07:18:03;1.93;;;0.90;;
5054;SDS011;13829;48.990;8.346;2023-03-14T07:20:30;1.30;;;0.80;;
5054;SDS011;13829;48.990;8.346;2023-03-14T07:22:57;1.90;;;0.63;;
5054;SDS011;13829;48.990;8.346;2023-03-14T07:25:25;1.23;;;0.70;;
5054;SDS011;13829;48.990;8.346;2023-03-14T07:27:52;2.53;;;0.77;;
5054;SDS011;13829;48.990;8.346;2023-03-14T07:30:19;1.43;;;0.80;;
5054;SDS011;13829;48.990;8.346;2023-03-14T07:32:48;1.30;;;0.60;;
5054;SDS011;13829;48.990;8.346;2023-03-14T07:35:15;1.00;;;0.60;;
5054;SDS011;13829;48.990;8.346;2023-03-14T07:37:42;2.43;;;0.70;;
5054;SDS011;13829;48.990;8.346;2023-03-14T07:40:09;1.57;;;1.00;;
5054;SDS011;13829;48.990;8.346;2023-03-14T07:42:39;1.90;;;0.83;;
5054;SDS011;13829;48.990;8.346;2023-03-14T07:45:07;2.87;;;0.90;;
5054;SDS011;13829;48.990;8.346;2023-03-14T07:47:35;2.30;;;0.80;;
5054;SDS011;13829;48.990;8.346;2023-03-14T07:50:04;1.53;;;0.50;;
5054;SDS011;13829;48.990;8.346;2023-03-14T07:52:33;3.33;;;0.67;;
5054;SDS011;13829;48.990;8.346;2023-03-14T07:55:00;3.87;;;0.63;;
5054;SDS011;13829;48.990;8.346;2023-03-14T07:57:27;2.67;;;0.60;;
5054;SDS011;13829;48.990;8.346;2023-03-14T07:59:54;3.33;;;0.50;;
5054;SDS011;13829;48.990;8.346;2023-03-14T08:02:21;1.37;;;0.43;;
5054;SDS011;13829;48.990;8.346;2023-03-14T08:04:49;2.20;;;0.73;;
5054;SDS011;13829;48.990;8.346;2023-03-14T08:07:18;1.33;;;0.53;;
5054;SDS011;13829;48.990;8.346;2023-03-14T08:09:45;1.13;;;0.60;;
5054;SDS011;13829;48.990;8.346;2023-03-14T08:12:11;0.63;;;0.50;;
5054;SDS011;13829;48.990;8.346;2023-03-14T08:14:38;2.33;;;0.60;;
5054;SDS011;13829;48.990;8.346;2023-03-14T08:17:05;2.20;;;0.60;;
5054;SDS011;13829;48.990;8.346;2023-03-14T08:19:33;1.13;;;0.53;;
5054;SDS011;13829;48.990;8.346;2023-03-14T08:22:00;1.20;;;0.53;;
5054;SDS011;13829;48.990;8.346;2023-03-14T08:24:28;2.50;;;0.60;;
5054;SDS011;13829;48.990;8.346;2023-03-14T08:26:55;3.23;;;0.70;;
5054;SDS011;13829;48.990;8.346;2023-03-14T08:29:22;1.40;;;0.50;;
5054;SDS011;13829;48.990;8.346;2023-03-14T08:31:50;1.00;;;0.53;;
5054;SDS011;13829;48.990;8.346;2023-03-14T08:34:16;0.87;;;0.37;;
5054;SDS011;13829;48.990;8.346;2023-03-14T08:36:44;0.93;;;0.67;;
5054;SDS011;13829;48.990;8.346;2023-03-14T08:39:11;1.23;;;0.50;;
5054;SDS011;13829;48.990;8.346;2023-03-14T08:41:39;1.50;;;0.70;;
5054;SDS011;13829;48.990;8.346;2023-03-14T08:44:08;1.60;;;0.70;;
5054;SDS011;13829;48.990;8.346;2023-03-14T08:46:36;0.93;;;0.50;;
5054;SDS011;13829;48.990;8.346;2023-03-14T08:49:03;1.37;;;0.70;;
5054;SDS011;13829;48.990;8.346;2023-03-14T08:51:30;1.73;;;0.90;;
5054;SDS011;13829;48.990;8.346;2023-03-14T08:53:57;0.80;;;0.60;;
5054;SDS011;13829;48.990;8.346;2023-03-14T08:56:24;2.13;;;0.70;;
5054;SDS011;13829;48.990;8.346;2023-03-14T08:58:52;0.87;;;0.60;;
5054;SDS011;13829;48.990;8.346;2023-03-14T09:01:19;1.23;;;0.70;;
5054;SDS011;13829;48.990;8.346;2023-03-14T09:03:49;1.90;;;0.60;;
5054;SDS011;13829;48.990;8.346;2023-03-14T09:06:16;2.37;;;0.60;;
5054;SDS011;13829;48.990;8.346;2023-03-14T09:08:43;0.93;;;0.43;;
5054;SDS011;13829;48.990;8.346;2023-03-14T09:11:10;2.17;;;0.70;;
5054;SDS011;13829;48.990;8.346;2023-03-14T09:13:38;1.00;;;0.60;;
5054;SDS011;13829;48.990;8.346;2023-03-14T09:16:08;1.47;;;0.60;;
5054;SDS011;13829;48.990;8.346;2023-03-14T09:18:35;1.83;;;0.60;;
5054;SDS011;13829;48.990;8.346;2023-03-14T09:21:03;1.63;;;0.77;;
5054;SDS011;13829;48.990;8.346;2023-03-14T09:23:30;1.33;;;0.50;;
5054;SDS011;13829;48.990;8.346;2023-03-14T09:25:58;0.50;;;0.40;;
5054;SDS011;13829;48.990;8.346;2023-03-14T09:28:26;2.50;;;0.67;;
5054;SDS011;13829;48.990;8.346;2023-03-14T09:30:54;2.20;;;0.50;;
5054;SDS011;13829;48.990;8.346;2023-03-14T09:33:22;0.97;;;0.57;;
5054;SDS011;13829;48.990;8.346;2023-03-14T09:35:49;0.73;;;0.50;;
5054;SDS011;13829;48.990;8.346;2023-03-14T09:38:16;3.17;;;0.80;;
5054;SDS011;13829;48.990;8.346;2023-03-14T09:40:45;0.53;;;0.40;;
5054;SDS011;13829;48.990;8.346;2023-03-14T09:43:13;1.53;;;0.40;;
5054;SDS011;13829;48.990;8.346;2023-03-14T09:45:42;0.43;;;0.40;;
5054;SDS011;13829;48.990;8.346;2023-03-14T09:48:14;2.00;;;0.40;;
5054;SDS011;13829;48.990;8.346;2023-03-14T09:50:48;0.77;;;0.43;;
5054;SDS011;13829;48.990;8.346;2023-03-14T09:53:20;1.03;;;0.57;;
5054;SDS011;13829;48.990;8.346;2023-03-14T09:55:52;0.53;;;0.37;;
5054;SDS011;13829;48.990;8.346;2023-03-14T09:58:24;1.17;;;0.53;;
5054;SDS011;13829;48.990;8.346;2023-03-14T10:00:52;0.60;;;0.50;;
5054;SDS011;13829;48.990;8.346;2023-03-14T10:03:25;0.90;;;0.60;;
5054;SDS011;13829;48.990;8.346;2023-03-14T10:05:58;0.70;;;0.40;;
5054;SDS011;13829;48.990;8.346;2023-03-14T10:08:26;2.20;;;0.70;;
5054;SDS011;13829;48.990;8.346;2023-03-14T10:10:54;0.40;;;0.40;;
5054;SDS011;13829;48.990;8.346;2023-03-14T10:13:21;0.40;;;0.40;;
5054;SDS011;13829;48.990;8.346;2023-03-14T10:15:53;0.77;;;0.43;;
5054;SDS011;13829;48.990;8.346;2023-03-14T10:18:24;0.73;;;0.50;;
5054;SDS011;13829;48.990;8.346;2023-03-14T10:21:02;0.87;;;0.70;;
5054;SDS011;13829;48.990;8.346;2023-03-14T10:23:33;0.40;;;0.40;;
5054;SDS011;13829;48.990;8.346;2023-03-14T10:26:08;1.63;;;0.60;;
5054;SDS011;13829;48.990;8.346;2023-03-14T10:28:41;0.97;;;0.50;;
5054;SDS011;13829;48.990;8.346;2023-03-14T10:31:11;0.97;;;0.87;;
5054;SDS011;13829;48.990;8.346;2023-03-14T10:33:39;0.40;;;0.40;;
5054;SDS011;13829;48.990;8.346;2023-03-14T10:36:17;1.90;;;0.40;;
5054;SDS011;13829;48.990;8.346;2023-03-14T10:38:51;0.67;;;0.50;;
5054;SDS011;13829;48.990;8.346;2023-03-14T10:41:31;0.60;;;0.40;;
5054;SDS011;13829;48.990;8.346;2023-03-14T10:43:59;0.70;;;0.47;;
5054;SDS011;13829;48.990;8.346;2023-03-14T10:46:29;0.73;;;0.60;;
5054;SDS011;13829;48.990;8.346;2023-03-14T10:48:59;1.10;;;0.50;;
5054;SDS011;13829;48.990;8.346;2023-03-14T10:51:33;0.80;;;0.43;;
5054;SDS011;13829;48.990;8.346;2023-03-14T10:54:01;0.73;;;0.43;;
5054;SDS011;13829;48.990;8.346;2023-03-14T10:56:37;0.47;;;0.47;;
5054;SDS011;13829;48.990;8.346;2023-03-14T10:59:06;1.20;;;0.60;;
5054;SDS011;13829;48.990;8.346;2023-03-14T11:01:41;0.40;;;0.40;;
5054;SDS011;13829;48.990;8.346;2023-03-14T11:04:15;1.37;;;0.47;;
5054;SDS011;13829;48.990;8.346;2023-03-14T11:07:09;1.27;;;0.40;;
5054;SDS011;13829;48.990;8.346;2023-03-14T11:09:47;1.10;;;0.50;;
5054;SDS011;13829;48.990;8.346;2023-03-14T11:12:28;0.60;;;0.60;;
5054;SDS011;13829;48.990;8.346;2023-03-14T11:15:09;0.57;;;0.50;;
5054;SDS011;13829;48.990;8.346;2023-03-14T11:17:46;0.97;;;0.50;;
5054;SDS011;13829;48.990;8.346;2023-03-14T11:20:33;0.30;;;0.30;;
5054;SDS011;13829;48.990;8.346;2023-03-14T11:23:11;3.00;;;0.80;;
5054;SDS011;13829;48.990;8.346;2023-03-14T11:25:43;0.33;;;0.33;;
5054;SDS011;13829;48.990;8.346;2023-03-14T11:28:22;0.50;;;0.50;;
5054;SDS011;13829;48.990;8.346;2023-03-14T11:31:01;1.57;;;0.50;;
5054;SDS011;13829;48.990;8.346;2023-03-14T11:33:44;0.60;;;0.60;;
5054;SDS011;13829;48.990;8.346;2023-03-14T11:36:21;1.03;;;0.80;;
5054;SDS011;13829;48.990;8.346;2023-03-14T11:38:56;0.70;;;0.70;;
5054;SDS011;13829;48.990;8.346;2023-03-14T11:41:25;2.03;;;0.80;;
5054;SDS011;13829;48.990;8.346;2023-03-14T11:43:59;1.27;;;0.97;;
5054;SDS011;13829;48.990;8.346;2023-03-14T11:46:36;1.33;;;0.90;;
5054;SDS011;13829;48.990;8.346;2023-03-14T11:49:10;1.43;;;0.70;;
5054;SDS011;13829;48.990;8.346;2023-03-14T11:51:53;1.40;;;0.93;;
5054;SDS011;13829;48.990;8.346;2023-03-14T11:54:28;0.90;;;0.90;;
5054;SDS011;13829;48.990;8.346;2023-03-14T11:57:03;0.80;;;0.80;;
5054;SDS011;13829;48.990;8.346;2023-03-14T11:59:39;1.23;;;1.00;;
5054;SDS011;13829;48.990;8.346;2023-03-14T12:02:17;1.50;;;0.93;;
5054;SDS011;13829;48.990;8.346;2023-03-14T12:04:54;1.40;;;0.83;;
5054;SDS011;13829;48.990;8.346;2023-03-14T12:11:02;2.07;;;1.10;;
5054;SDS011;13829;48.990;8.346;2023-03-14T12:13:38;1.57;;;1.00;;
5054;SDS011;13829;48.990;8.346;2023-03-14T12:16:10;1.50;;;1.00;;
5054;SDS011;13829;48.990;8.346;2023-03-14T12:18:57;2.87;;;1.10;;
5054;SDS011;13829;48.990;8.346;2023-03-14T12:22:00;2.43;;;1.40;;
5054;SDS011;13829;48.990;8.346;2023-03-14T12:24:40;1.93;;;1.27;;
5054;SDS011;13829;48.990;8.346;2023-03-14T12:30:31;3.53;;;1.10;;
5054;SDS011;13829;48.990;8.346;2023-03-14T12:36:00;1.93;;;0.90;;
5054;SDS011;13829;48.990;8.346;2023-03-14T12:39:25;1.80;;;0.77;;
5054;SDS011;13829;48.990;8.346;2023-03-14T12:42:09;2.47;;;0.63;;
5054;SDS011;13829;48.990;8.346;2023-03-14T12:44:41;2.40;;;1.10;;
5054;SDS011;13829;48.990;8.346;2023-03-14T12:50:24;2.03;;;0.77;;
5054;SDS011;13829;48.990;8.346;2023-03-14T12:53:02;1.83;;;0.93;;
5054;SDS011;13829;48.990;8.346;2023-03-14T12:56:15;2.97;;;0.70;;
5054;SDS011;13829;48.990;8.346;2023-03-14T12:58:58;2.90;;;0.97;;
5054;SDS011;13829;48.990;8.346;2023-03-14T13:01:56;1.27;;;0.70;;
5054;SDS011;13829;48.990;8.346;2023-03-14T13:04:28;2.20;;;0.90;;
5054;SDS011;13829;48.990;8.346;2023-03-14T13:07:00;1.33;;;0.73;;
5054;SDS011;13829;48.990;8.346;2023-03-14T13:09:45;5.30;;;1.13;;
5054;SDS011;13829;48.990;8.346;2023-03-14T13:12:29;1.90;;;0.67;;
5054;SDS011;13829;48.990;8.346;2023-03-14T13:15:11;0.93;;;0.50;;
5054;SDS011;13829;48.990;8.346;2023-03-14T13:17:47;1.67;;;0.90;;
5054;SDS011;13829;48.990;8.346;2023-03-14T13:20:20;0.97;;;0.70;;
5054;SDS011;13829;48.990;8.346;2023-03-14T13:22:55;1.60;;;0.70;;
5054;SDS011;13829;48.990;8.346;2023-03-14T13:25:22;1.60;;;0.87;;
5054;SDS011;13829;48.990;8.346;2023-03-14T13:27:49;1.23;;;0.60;;
5054;SDS011;13829;48.990;8.346;2023-03-14T13:30:21;2.00;;;0.60;;
5054;SDS011;13829;48.990;8.346;2023-03-14T13:32:53;3.40;;;0.77;;
5054;SDS011;13829;48.990;8.346;2023-03-14T13:35:22;1.37;;;0.63;;
5054;SDS011;13829;48.990;8.346;2023-03-14T13:37:56;0.60;;;0.60;;
5054;SDS011;13829;48.990;8.346;2023-03-14T13:40:28;2.90;;;0.70;;
5054;SDS011;13829;48.990;8.346;2023-03-14T13:43:02;3.03;;;0.70;;
5054;SDS011;13829;48.990;8.346;2023-03-14T13:45:44;2.83;;;0.77;;
5054;SDS011;13829;48.990;8.346;2023-03-14T13:48:17;2.93;;;1.03;;
5054;SDS011;13829;48.990;8.346;2023-03-14T13:50:52;3.60;;;0.83;;
5054;SDS011;13829;48.990;8.346;2023-03-14T13:53:22;3.27;;;0.80;;
5054;SDS011;13829;48.990;8.346;2023-03-14T13:55:50;6.83;;;0.80;;
5054;SDS011;13829;48.990;8.346;2023-03-14T13:58:22;1.67;;;0.80;;
5054;SDS011;13829;48.990;8.346;2023-03-14T14:00:56;1.30;;;0.90;;
5054;SDS011;13829;48.990;8.346;2023-03-14T14:03:31;3.00;;;1.00;;
5054;SDS011;13829;48.990;8.346;2023-03-14T14:06:02;2.87;;;0.93;;
5054;SDS011;13829;48.990;8.346;2023-03-14T14:08:35;2.17;;;0.87;;
5054;SDS011;13829;48.990;8.346;2023-03-14T14:11:06;1.67;;;0.70;;
5054;SDS011;13829;48.990;8.346;2023-03-14T14:13:44;2.57;;;1.07;;
5054;SDS011;13829;48.990;8.346;2023-03-14T14:16:11;3.77;;;1.00;;
5054;SDS011;13829;48.990;8.346;2023-03-14T14:18:43;1.90;;;0.87;;
5054;SDS011;13829;48.990;8.346;2023-03-14T14:21:10;4.40;;;1.17;;
5054;SDS011;13829;48.990;8.346;2023-03-14T14:23:39;6.20;;;1.30;;
5054;SDS011;13829;48.990;8.346;2023-03-14T14:26:07;3.87;;;1.00;;
5054;SDS011;13829;48.990;8.346;2023-03-14T14:28:34;2.13;;;1.03;;
5054;SDS011;13829;48.990;8.346;2023-03-14T14:31:16;3.03;;;1.00;;
5054;SDS011;13829;48.990;8.346;2023-03-14T14:33:54;2.20;;;0.70;;
5054;SDS011;13829;48.990;8.346;2023-03-14T14:36:24;1.40;;;0.73;;
5054;SDS011;13829;48.990;8.346;2023-03-14T14:38:57;3.83;;;1.30;;
5054;SDS011;13829;48.990;8.346;2023-03-14T14:41:27;1.20;;;0.83;;
5054;SDS011;13829;48.990;8.346;2023-03-14T14:44:00;4.13;;;1.10;;
5054;SDS011;13829;48.990;8.346;2023-03-14T14:46:30;3.63;;;1.53;;
5054;SDS011;13829;48.990;8.346;2023-03-14T14:49:05;3.33;;;1.17;;
5054;SDS011;13829;48.990;8.346;2023-03-14T14:51:38;2.57;;;0.90;;
5054;SDS011;13829;48.990;8.346;2023-03-14T14:54:10;4.03;;;1.03;;
5054;SDS011;13829;48.990;8.346;2023-03-14T14:56:40;7.40;;;1.43;;
5054;SDS011;13829;48.990;8.346;2023-03-14T14:59:23;1.77;;;1.00;;
5054;SDS011;13829;48.990;8.346;2023-03-14T15:01:56;2.93;;;1.20;;
5054;SDS011;13829;48.990;8.346;2023-03-14T15:04:27;4.13;;;1.53;;
5054;SDS011;13829;48.990;8.346;2023-03-14T15:06:57;4.73;;;1.60;;
5054;SDS011;13829;48.990;8.346;2023-03-14T15:09:24;4.33;;;1.87;;
5054;SDS011;13829;48.990;8.346;2023-03-14T15:11:51;4.73;;;1.30;;
5054;SDS011;13829;48.990;8.346;2023-03-14T15:14:18;3.73;;;1.30;;
5054;SDS011;13829;48.990;8.346;2023-03-14T15:16:45;1.93;;;1.27;;
5054;SDS011;13829;48.990;8.346;2023-03-14T15:19:14;5.07;;;1.03;;
5054;SDS011;13829;48.990;8.346;2023-03-14T15:21:48;4.13;;;1.67;;
5054;SDS011;13829;48.990;8.346;2023-03-14T15:24:15;4.20;;;1.47;;
5054;SDS011;13829;48.990;8.346;2023-03-14T15:26:41;4.57;;;1.40;;
5054;SDS011;13829;48.990;8.346;2023-03-14T15:29:09;4.50;;;1.80;;
5054;SDS011;13829;48.990;8.346;2023-03-14T15:31:37;5.80;;;1.20;;
5054;SDS011;13829;48.990;8.346;2023-03-14T15:34:04;3.20;;;1.03;;
5054;SDS011;13829;48.990;8.346;2023-03-14T15:36:32;4.50;;;1.60;;